Airport Name : Brussels Natl

Other Name : Brussels Natl

ICAO : EBBR

IATA : BRU

FAA :

Latitude : 50.901389

Longitude : 4.484444

Country : Belgium

Local Date and Time : 16 Jan 2021 01:26

 

TAF (Terminal Aerodrome Forecast)

TAF EBBR 152310Z 1600/1706 20005KT 9999 SCT045 PROB30 TEMPO 1602/1608 4000 BR MIFG BECMG 1613/1615 BKN007 TEMPO 1613/1619 0800 SN BKN002 PROB40 TEMPO 1619/1624 1800 -SN BKN004 PROB40 TEMPO 1700/1706 3000 -DZ BKN004

 

METAR (METeorological Aerodrome Report)

EBBR 152350Z 21003KT 9999 BKN047 00/M02 Q1030 NOSIG

EBBR 152320Z 21003KT 9999 BKN047 00/M02 Q1030 NOSIG

EBBR 152250Z 23002KT 9999 BKN047 00/M01 Q1030 NOSIG

EBBR 152220Z 26002KT 9999 BKN047 01/M02 Q1030 NOSIG

EBBR 152150Z 26002KT 9999 BKN047 01/M02 Q1031 NOSIG

EBBR 152120Z 28003KT 9999 BKN047 01/M02 Q1031 NOSIG

EBBR 152050Z 28002KT 9999 BKN046 01/M02 Q1030 NOSIG

To Charter a Jet Click here.